Time;durP1;ratioP1;P1;durP2;ratioP2;P2;SDS_P1;SDS_P2;PMS_P1;PMS_P2;Temp;Humidity;BMP_temperature;BMP_pressure;BME280_temperature;BME280_humidity;BME280_pressure;Samples;Min_cycle;Max_cycle;Signal;HPM_P1;HPM_P2
2022/07/21 00:00:44;;;;;;;26.48;10.73;;;;;;;22.37;54.88;101255.69;5011910;28;20022;-71
2022/07/21 00:03:10;;;;;;;20.20;10.70;;;;;;;22.18;55.46;101251.22;5011704;28;20040;-71
2022/07/21 00:05:36;;;;;;;18.92;10.55;;;;;;;22.22;54.98;101257.94;5028965;28;20116;-72
2022/07/21 00:08:01;;;;;;;23.77;9.95;;;;;;;22.17;54.81;101249.53;5011936;28;20068;-72
2022/07/21 00:10:27;;;;;;;21.05;10.23;;;;;;;22.30;54.47;101248.53;5011769;28;20476;-72
2022/07/21 00:12:54;;;;;;;18.50;9.38;;;;;;;22.19;55.03;101247.38;5029291;28;20025;-70
2022/07/21 00:15:22;;;;;;;20.23;9.82;;;;;;;22.25;54.54;101252.00;5029699;28;20021;-71
2022/07/21 00:17:48;;;;;;;18.23;8.95;;;;;;;22.24;54.32;101255.81;5029415;28;20029;-71
2022/07/21 00:20:15;;;;;;;16.70;9.25;;;;;;;22.20;54.74;101249.06;5029343;28;20078;-72
2022/07/21 00:22:41;;;;;;;22.92;10.10;;;;;;;22.12;55.09;101246.59;5029808;28;20029;-72
2022/07/21 00:25:08;;;;;;;17.65;9.15;;;;;;;22.11;54.88;101239.41;5011561;28;20021;-72
2022/07/21 00:27:34;;;;;;;19.63;9.88;;;;;;;22.04;55.26;101235.78;5020010;28;20025;-71
2022/07/21 00:30:00;;;;;;;17.58;9.30;;;;;;;22.06;55.19;101240.03;5029068;28;20029;-72
2022/07/21 00:32:26;;;;;;;28.88;9.73;;;;;;;21.98;55.65;101228.44;5029690;28;20033;-71
2022/07/21 00:34:51;;;;;;;20.55;10.30;;;;;;;21.94;55.79;101217.84;5028284;28;20108;-71
2022/07/21 00:37:17;;;;;;;21.25;10.02;;;;;;;21.93;55.89;101207.91;5029542;28;20137;-72
2022/07/21 00:39:42;;;;;;;20.80;9.52;;;;;;;21.90;56.13;101211.09;5011533;28;20026;-71
2022/07/21 00:42:08;;;;;;;20.02;9.85;;;;;;;21.66;56.95;101215.53;5029456;28;20064;-71
2022/07/21 00:44:33;;;;;;;26.92;9.90;;;;;;;21.62;57.24;101207.94;5011970;28;20522;-71
2022/07/21 00:46:59;;;;;;;18.83;10.02;;;;;;;21.57;57.65;101207.75;5030437;28;20030;-70
2022/07/21 00:49:24;;;;;;;22.30;11.40;;;;;;;21.37;58.58;101205.97;5012137;28;20037;-71
2022/07/21 00:51:50;;;;;;;23.13;11.15;;;;;;;21.44;58.28;101205.06;5012004;28;20033;-70
2022/07/21 00:54:17;;;;;;;21.15;10.95;;;;;;;21.44;58.40;101188.53;5029387;28;20021;-70
2022/07/21 00:56:45;;;;;;;26.20;11.00;;;;;;;21.34;59.02;101189.91;5028612;28;20036;-71
2022/07/21 00:59:11;;;;;;;19.95;9.95;;;;;;;21.31;59.23;101190.31;5008138;28;20060;-70
2022/07/21 01:01:37;;;;;;;23.67;10.90;;;;;;;21.38;59.12;101188.38;5008082;28;20045;-72
2022/07/21 01:04:02;;;;;;;20.58;9.93;;;;;;;21.50;59.09;101193.16;5010506;28;20017;-71
2022/07/21 01:06:28;;;;;;;24.05;11.63;;;;;;;21.35;59.40;101191.56;5008873;28;20053;-71
2022/07/21 01:08:54;;;;;;;25.38;12.27;;;;;;;21.06;60.58;101186.63;5009355;28;20124;-69
2022/07/21 01:11:21;;;;;;;22.60;10.85;;;;;;;21.08;60.66;101179.00;5031598;28;20029;-71
2022/07/21 01:13:47;;;;;;;31.85;12.85;;;;;;;21.06;61.06;101181.09;5015395;28;20016;-72
2022/07/21 01:16:14;;;;;;;24.92;11.82;;;;;;;20.86;61.39;101182.09;5015427;28;20029;-72
2022/07/21 01:18:40;;;;;;;24.48;12.15;;;;;;;20.86;61.54;101198.59;5032314;28;20057;-70
2022/07/21 01:21:17;;;;;;;23.52;11.60;;;;;;;20.81;61.94;101201.16;5031955;28;20025;-72
2022/07/21 01:23:42;;;;;;;20.92;11.88;;;;;;;20.77;61.90;101205.38;5032792;28;20021;-72
2022/07/21 01:26:08;;;;;;;31.65;11.93;;;;;;;20.73;62.16;101204.13;5010309;28;20032;-71
2022/07/21 01:28:33;;;;;;;23.23;11.10;;;;;;;20.70;62.45;101209.22;5028602;28;20021;-71
2022/07/21 01:30:58;;;;;;;25.88;11.48;;;;;;;20.65;62.70;101212.63;5015092;28;20476;-72
2022/07/21 01:33:24;;;;;;;27.13;12.65;;;;;;;20.67;62.57;101202.25;5032396;28;20104;-72
2022/07/21 01:35:49;;;;;;;24.75;11.15;;;;;;;20.65;62.73;101184.25;5032751;28;20036;-72
2022/07/21 01:43:43;;;;;;;28.27;12.05;;;;;;;20.51;63.30;101227.47;5032187;28;20029;-71
2022/07/21 01:46:12;;;;;;;27.27;12.48;;;;;;;20.06;65.20;101291.38;5014623;28;20022;-71
2022/07/21 01:48:42;;;;;;;34.88;14.30;;;;;;;19.56;68.10;101333.97;5014844;28;20025;-71
2022/07/21 01:51:07;;;;;;;30.52;13.93;;;;;;;19.58;68.39;101326.38;5031136;28;20026;-71
2022/07/21 01:53:33;;;;;;;30.30;13.35;;;;;;;19.68;68.43;101332.31;5031537;28;20024;-71
2022/07/21 01:55:58;;;;;;;31.25;14.10;;;;;;;19.92;67.49;101327.31;5014032;28;20035;-71
2022/07/21 01:58:24;;;;;;;37.22;14.25;;;;;;;19.98;67.32;101340.22;5014567;28;20044;-71
2022/07/21 02:00:49;;;;;;;40.40;14.77;;;;;;;19.91;67.73;101350.34;5032263;28;20049;-71
2022/07/21 02:03:14;;;;;;;29.98;12.20;;;;;;;20.03;66.90;101321.19;5031752;28;20025;-69
2022/07/21 02:05:40;;;;;;;25.02;12.13;;;;;;;20.22;65.85;101295.63;5014652;28;20021;-70
2022/07/21 02:08:05;;;;;;;27.05;11.55;;;;;;;20.23;65.59;101313.81;5032772;28;20037;-71
2022/07/21 02:10:31;;;;;;;33.15;12.38;;;;;;;20.29;65.59;101307.47;5030524;28;20029;-71
2022/07/21 02:12:56;;;;;;;25.85;11.88;;;;;;;20.24;65.95;101299.00;5030639;28;20040;-70
2022/07/21 02:15:21;;;;;;;26.05;11.35;;;;;;;20.39;65.50;101297.94;5031187;28;20029;-70
2022/07/21 02:17:47;;;;;;;27.15;11.43;;;;;;;20.19;66.37;101307.03;5030315;28;20060;-70
2022/07/21 02:20:12;;;;;;;28.75;12.50;;;;;;;20.10;66.94;101319.28;5030390;28;20029;-71
2022/07/21 02:22:37;;;;;;;28.15;12.30;;;;;;;20.14;66.82;101315.06;5030380;28;20037;-71
2022/07/21 02:25:03;;;;;;;28.63;12.50;;;;;;;20.12;67.21;101314.44;5031622;28;20040;-72
2022/07/21 02:27:28;;;;;;;28.77;12.00;;;;;;;20.08;67.32;101326.88;5029270;28;20033;-71
2022/07/21 02:29:54;;;;;;;29.10;12.77;;;;;;;20.14;67.23;101339.78;5014053;28;20025;-70
2022/07/21 02:32:19;;;;;;;31.23;11.43;;;;;;;20.08;67.27;101315.88;5031905;28;20018;-71
2022/07/21 02:34:45;;;;;;;36.63;13.88;;;;;;;20.14;67.50;101309.56;5013857;28;20052;-71
2022/07/21 02:37:10;;;;;;;26.65;12.25;;;;;;;20.03;67.92;101315.69;5014274;28;20033;-70
2022/07/21 02:39:36;;;;;;;35.47;13.55;;;;;;;19.98;68.65;101304.47;5013857;28;20100;-72
2022/07/21 02:42:01;;;;;;;32.95;14.13;;;;;;;19.92;69.22;101310.81;5013717;28;20026;-72
2022/07/21 02:44:26;;;;;;;30.88;13.50;;;;;;;20.03;68.87;101301.97;5013753;28;20032;-72
2022/07/21 02:46:52;;;;;;;37.50;13.95;;;;;;;19.97;69.35;101305.53;5031158;28;20029;-71
2022/07/21 02:49:17;;;;;;;34.33;14.13;;;;;;;19.82;70.01;101288.38;5014148;28;20052;-72
2022/07/21 02:51:42;;;;;;;46.00;15.52;;;;;;;20.03;69.73;101290.97;5030877;28;20044;-70
2022/07/21 02:54:08;;;;;;;33.17;14.10;;;;;;;20.10;69.24;101291.81;5013525;28;20029;-72
2022/07/21 02:56:33;;;;;;;38.85;14.20;;;;;;;20.16;69.49;101296.47;5013648;28;20037;-72
2022/07/21 02:58:59;;;;;;;46.45;17.73;;;;;;;19.58;72.22;101307.16;5013443;28;20025;-71
2022/07/21 03:01:24;;;;;;;36.97;15.32;;;;;;;19.69;71.94;101316.66;5013471;28;20029;-72
2022/07/21 03:03:49;;;;;;;41.10;17.65;;;;;;;19.51;73.16;101309.00;5030662;28;20107;-72
2022/07/21 03:06:14;;;;;;;48.78;17.35;;;;;;;19.44;73.31;101319.13;5030236;28;20036;-72
2022/07/21 03:08:40;;;;;;;44.58;18.77;;;;;;;19.53;73.24;101296.75;5029412;28;20064;-71
2022/07/21 03:11:06;;;;;;;46.25;18.02;;;;;;;19.51;73.57;101298.00;5013628;28;20033;-72
2022/07/21 03:13:31;;;;;;;41.60;18.83;;;;;;;19.57;73.42;101319.16;5025557;28;20021;-72
2022/07/21 03:15:57;;;;;;;47.55;17.77;;;;;;;19.39;74.00;101310.66;5031545;28;20104;-72
2022/07/21 03:18:22;;;;;;;37.42;17.45;;;;;;;19.65;73.25;101291.53;5029338;28;20116;-72
2022/07/21 03:20:48;;;;;;;37.85;17.48;;;;;;;19.73;73.00;101285.00;5030599;28;20029;-72
2022/07/21 03:23:13;;;;;;;38.95;17.35;;;;;;;19.55;73.77;101299.28;5029142;28;20040;-72
2022/07/21 03:25:38;;;;;;;43.10;17.40;;;;;;;19.42;74.35;101289.09;5028829;28;20044;-71
2022/07/21 03:28:05;;;;;;;40.38;15.95;;;;;;;19.45;74.74;101282.34;5027510;28;20039;-73
2022/07/21 03:30:30;;;;;;;36.67;15.45;;;;;;;19.44;74.90;101291.66;5012159;28;20116;-73
2022/07/21 03:32:56;;;;;;;44.17;16.30;;;;;;;19.42;74.86;101304.72;5029869;28;20116;-71
2022/07/21 03:35:22;;;;;;;39.92;15.80;;;;;;;19.54;74.93;101308.56;5012379;28;20025;-71
2022/07/21 03:37:55;;;;;;;38.90;14.25;;;;;;;19.37;75.93;101312.75;5030406;28;20025;-72
2022/07/21 03:40:25;;;;;;;34.47;14.07;;;;;;;19.30;76.44;101311.84;5012769;28;20033;-73
2022/07/21 03:42:53;;;;;;;32.95;13.50;;;;;;;19.11;77.44;101322.56;5028921;28;20037;-72
2022/07/21 03:45:18;;;;;;;36.05;14.13;;;;;;;19.20;77.38;101324.06;5030046;28;20124;-71
2022/07/21 03:47:44;;;;;;;41.97;14.43;;;;;;;19.37;76.88;101318.25;5029062;28;20112;-72
2022/07/21 03:50:11;;;;;;;35.42;12.50;;;;;;;19.41;76.65;101319.50;5012210;28;20059;-71
2022/07/21 03:52:37;;;;;;;39.15;12.23;;;;;;;19.49;75.87;101327.56;5028712;28;20059;-72
2022/07/21 03:55:09;;;;;;;29.45;12.48;;;;;;;19.56;76.09;101327.59;5029777;28;20065;-72
2022/07/21 03:57:47;;;;;;;37.65;11.27;;;;;;;19.66;75.17;101323.44;5021784;28;20089;-72
2022/07/21 04:00:16;;;;;;;35.97;11.23;;;;;;;19.69;74.81;101323.03;5012218;28;20392;-72
2022/07/21 04:02:44;;;;;;;28.42;9.30;;;;;;;19.87;74.09;101313.34;5012462;28;20067;-73
2022/07/21 04:05:11;;;;;;;27.98;10.02;;;;;;;19.86;73.57;101322.63;5028512;28;20269;-72
2022/07/21 04:07:40;;;;;;;31.52;8.60;;;;;;;19.92;73.23;101341.03;5028384;28;20025;-73
2022/07/21 04:10:07;;;;;;;30.80;9.38;;;;;;;19.83;73.60;101345.06;5028157;28;20029;-73
2022/07/21 04:12:33;;;;;;;31.95;9.43;;;;;;;19.92;72.87;101332.81;5012061;28;20060;-72
2022/07/21 04:14:58;;;;;;;25.67;9.23;;;;;;;19.98;72.98;101320.97;5029812;28;20060;-72
2022/07/21 04:17:23;;;;;;;27.83;8.63;;;;;;;20.16;72.19;101307.47;5012146;28;20120;-71
2022/07/21 04:19:49;;;;;;;31.05;9.32;;;;;;;20.06;72.52;101301.53;5012116;28;20065;-73
2022/07/21 04:22:15;;;;;;;23.55;8.82;;;;;;;20.10;72.56;101291.81;5011515;28;20103;-72
2022/07/21 04:24:41;;;;;;;27.25;8.45;;;;;;;20.14;72.40;101315.06;5027912;28;20519;-71
2022/07/21 04:27:06;;;;;;;27.48;7.72;;;;;;;20.02;73.06;101327.75;5006813;28;20025;-72
2022/07/21 04:29:31;;;;;;;23.58;8.18;;;;;;;20.11;72.68;101336.63;5008205;28;20108;-72
2022/07/21 04:32:00;;;;;;;25.08;7.60;;;;;;;19.98;73.19;101343.81;5028640;28;20074;-73
2022/07/21 04:34:27;;;;;;;24.38;8.52;;;;;;;20.09;72.80;101345.09;5025633;28;20140;-71
2022/07/21 04:36:52;;;;;;;38.15;8.93;;;;;;;20.18;72.62;101349.31;5009882;28;20094;-72
2022/07/21 04:39:17;;;;;;;32.80;8.18;;;;;;;20.19;72.51;101340.03;5026208;28;20068;-72
2022/07/21 04:41:43;;;;;;;24.40;7.07;;;;;;;20.37;72.14;101335.81;5028957;28;20014;-73
2022/07/21 04:44:08;;;;;;;27.98;8.13;;;;;;;20.39;71.56;101333.69;5012034;28;20033;-72
2022/07/21 04:46:33;;;;;;;22.42;7.78;;;;;;;20.53;70.88;101329.91;5031906;28;20033;-72
2022/07/21 04:48:58;;;;;;;26.98;7.30;;;;;;;20.66;70.01;101323.53;5015797;28;20033;-72
2022/07/21 04:51:24;;;;;;;19.23;7.15;;;;;;;20.71;69.38;101316.34;5015275;28;20033;-71
2022/07/21 04:53:49;;;;;;;26.30;8.52;;;;;;;20.71;69.65;101321.84;5015192;28;20056;-72
2022/07/21 04:56:14;;;;;;;24.30;6.32;;;;;;;20.78;69.46;101311.66;5009981;28;20401;-72
2022/07/21 04:58:40;;;;;;;31.83;7.50;;;;;;;20.84;69.39;101313.56;5014276;28;20068;-72
2022/07/21 05:01:05;;;;;;;32.03;7.55;;;;;;;20.99;68.38;101317.97;4995520;28;20034;-73
2022/07/21 05:03:31;;;;;;;22.00;7.05;;;;;;;21.05;68.16;101306.06;5012776;28;20084;-71
2022/07/21 05:05:56;;;;;;;24.13;6.65;;;;;;;20.88;68.26;101304.88;5014107;28;20076;-73
2022/07/21 05:08:21;;;;;;;29.73;6.80;;;;;;;20.86;68.34;101270.16;5013169;28;20021;-73
2022/07/21 05:10:47;;;;;;;26.63;7.68;;;;;;;20.82;68.39;101235.88;4999088;28;20122;-71
2022/07/21 05:13:12;;;;;;;34.08;7.68;;;;;;;20.84;68.37;101233.72;5032568;28;20067;-73
2022/07/21 05:15:37;;;;;;;31.27;6.80;;;;;;;20.93;68.37;101241.75;5032103;28;20021;-73
2022/07/21 05:18:03;;;;;;;25.13;7.05;;;;;;;20.90;68.35;101243.03;5037534;28;20059;-73
2022/07/21 05:20:28;;;;;;;16.65;6.97;;;;;;;20.99;68.06;101251.88;5014646;28;20490;-73
2022/07/21 05:22:53;;;;;;;18.02;5.97;;;;;;;20.99;67.64;101262.91;5032683;28;20022;-74
2022/07/21 05:25:19;;;;;;;21.58;6.28;;;;;;;21.00;67.85;101267.38;5031060;28;20040;-72
2022/07/21 05:27:44;;;;;;;23.33;6.00;;;;;;;21.16;66.85;101263.25;5014894;28;20033;-73
2022/07/21 05:30:10;;;;;;;34.05;6.35;;;;;;;21.06;67.31;101260.97;5014559;28;20018;-73
2022/07/21 05:32:36;;;;;;;28.92;7.70;;;;;;;21.03;67.00;101240.22;5014971;28;20099;-72
2022/07/21 05:35:08;;;;;;;21.02;6.47;;;;;;;21.01;66.99;101208.47;5014826;28;20021;-73
2022/07/21 05:37:33;;;;;;;18.45;6.28;;;;;;;21.03;66.94;101203.59;5032303;28;20090;-73
2022/07/21 05:39:58;;;;;;;18.73;6.15;;;;;;;21.04;67.99;101210.78;5014496;28;20029;-73
2022/07/21 05:42:24;;;;;;;18.33;6.13;;;;;;;21.01;67.96;101216.75;5031336;28;20029;-72
2022/07/21 05:44:49;;;;;;;22.30;6.38;;;;;;;20.94;68.17;101221.44;5014387;28;20024;-73
2022/07/21 05:47:15;;;;;;;23.42;5.85;;;;;;;20.91;67.75;101210.84;5014584;28;20476;-70
2022/07/21 05:49:40;;;;;;;23.25;5.55;;;;;;;20.93;67.34;101214.22;5031926;28;20057;-72
2022/07/21 05:52:06;;;;;;;16.10;5.63;;;;;;;21.06;67.34;101219.66;5031315;28;20025;-73
2022/07/21 05:54:34;;;;;;;26.17;6.18;;;;;;;21.24;65.63;101233.56;5031347;28;20017;-72
2022/07/21 05:57:03;;;;;;;23.65;5.65;;;;;;;21.19;65.09;101238.91;5027322;28;20025;-72
2022/07/21 05:59:28;;;;;;;16.13;5.25;;;;;;;21.12;65.84;101280.22;5014248;28;20025;-71
2022/07/21 06:01:54;;;;;;;16.90;5.25;;;;;;;21.38;64.91;101284.78;5030671;28;20055;-72
2022/07/21 06:04:19;;;;;;;18.15;5.95;;;;;;;21.54;64.38;101299.13;5014211;28;20021;-72
2022/07/21 06:06:44;;;;;;;18.42;5.32;;;;;;;21.64;63.40;101310.50;5030977;28;20476;-72
2022/07/21 06:09:10;;;;;;;20.45;6.38;;;;;;;21.30;64.71;101337.38;5012624;28;20078;-72
2022/07/21 06:11:35;;;;;;;13.77;5.45;;;;;;;21.18;65.14;101344.59;5013789;28;20029;-73
2022/07/21 06:14:00;;;;;;;27.90;6.05;;;;;;;20.95;66.49;101349.75;5013625;28;20071;-73
2022/07/21 06:16:26;;;;;;;21.00;6.40;;;;;;;21.22;65.40;101334.84;5014076;28;20051;-72
2022/07/21 06:18:51;;;;;;;14.10;5.88;;;;;;;21.26;65.98;101347.13;5031540;28;20391;-72
2022/07/21 06:21:17;;;;;;;30.20;6.72;;;;;;;21.46;65.41;101357.25;5031291;28;20021;-72
2022/07/21 06:23:43;;;;;;;21.73;6.93;;;;;;;21.32;66.06;101346.28;5014026;28;20091;-74
2022/07/21 06:26:08;;;;;;;23.42;6.30;;;;;;;21.39;66.31;101319.56;5013557;28;20480;-73
2022/07/21 06:28:33;;;;;;;27.10;6.43;;;;;;;21.39;65.86;101308.53;5014134;28;20095;-72
2022/07/21 06:30:59;;;;;;;22.58;6.97;;;;;;;21.26;67.47;101294.78;5007716;28;20377;-72
2022/07/21 06:33:25;;;;;;;34.95;7.22;;;;;;;21.18;68.75;101278.50;5024585;28;20388;-72
2022/07/21 06:35:50;;;;;;;26.65;6.82;;;;;;;21.14;69.19;101294.63;5010705;28;20022;-74
2022/07/21 06:38:15;;;;;;;21.27;6.85;;;;;;;21.03;70.53;101291.69;4994109;28;20030;-73
2022/07/21 06:40:41;;;;;;;35.47;8.20;;;;;;;20.96;71.32;101279.84;5000557;28;20496;-74
2022/07/21 06:43:06;;;;;;;43.47;9.60;;;;;;;20.84;72.10;101283.28;5030381;28;20033;-74
2022/07/21 06:45:32;;;;;;;31.30;10.30;;;;;;;20.85;72.26;101306.13;5013858;28;20392;-75
2022/07/21 06:48:05;;;;;;;26.83;8.40;;;;;;;20.92;70.45;101311.63;5031944;28;20029;-71
2022/07/21 06:50:31;;;;;;;25.65;8.07;;;;;;;20.97;72.78;101309.06;5031573;28;20065;-72
2022/07/21 06:52:56;;;;;;;23.92;8.02;;;;;;;20.95;71.95;101291.94;5030392;28;20056;-73
2022/07/21 06:55:22;;;;;;;32.30;8.55;;;;;;;20.64;73.39;101265.97;5013475;28;20017;-71
2022/07/21 06:57:47;;;;;;;29.20;9.20;;;;;;;20.37;73.99;101242.28;5029530;28;20060;-71
2022/07/21 07:00:13;;;;;;;23.90;8.80;;;;;;;20.33;74.89;101225.34;5013311;28;20044;-71
2022/07/21 07:02:38;;;;;;;27.30;11.02;;;;;;;20.43;74.65;101244.19;5020968;28;20029;-73
2022/07/21 07:05:04;;;;;;;36.38;9.32;;;;;;;20.40;74.50;101263.84;5030947;28;20037;-75
2022/07/21 07:07:30;;;;;;;36.60;9.70;;;;;;;20.25;75.93;101261.34;5030346;28;20392;-75
2022/07/21 07:09:56;;;;;;;28.17;8.85;;;;;;;20.33;75.56;101280.38;5030459;28;20148;-74
2022/07/21 07:12:22;;;;;;;27.58;9.98;;;;;;;20.10;76.32;101280.81;5031494;28;20030;-72
2022/07/21 07:14:47;;;;;;;28.23;9.43;;;;;;;20.27;75.48;101290.31;5013124;28;20018;-71
2022/07/21 07:17:18;;;;;;;30.67;9.82;;;;;;;20.47;75.91;101293.06;5030828;28;20052;-73
2022/07/21 07:19:44;;;;;;;31.90;10.85;;;;;;;20.45;76.13;101305.38;5029153;28;20029;-72
2022/07/21 07:22:10;;;;;;;41.47;10.65;;;;;;;20.55;75.96;101322.28;5013124;28;20029;-73
2022/07/21 07:24:35;;;;;;;41.00;10.77;;;;;;;20.24;76.88;101326.50;5031242;28;20025;-75
2022/07/21 07:27:00;;;;;;;35.38;11.82;;;;;;;20.30;77.91;101325.66;5032613;28;20029;-75
2022/07/21 07:29:27;;;;;;;31.48;11.95;;;;;;;20.22;77.72;101328.63;5013821;28;20099;-75
2022/07/21 07:31:53;;;;;;;28.15;12.45;;;;;;;20.23;78.07;101345.97;5014459;28;20038;-75
2022/07/21 07:34:18;;;;;;;35.15;11.43;;;;;;;20.18;78.72;101365.81;5031352;28;20025;-75
2022/07/21 07:36:44;;;;;;;42.80;12.35;;;;;;;20.09;79.02;101372.59;5031798;28;20032;-75
2022/07/21 07:39:09;;;;;;;27.55;11.73;;;;;;;20.15;79.28;101381.88;5013413;28;20029;-75
2022/07/21 07:41:35;;;;;;;28.25;12.10;;;;;;;20.00;79.20;101384.81;5030295;28;20032;-74
2022/07/21 07:44:00;;;;;;;45.17;12.13;;;;;;;19.89;80.44;101379.94;5030880;28;20033;-74
2022/07/21 07:46:26;;;;;;;31.83;13.65;;;;;;;20.09;79.79;101382.75;5012778;28;20087;-74
2022/07/21 07:48:52;;;;;;;30.02;13.57;;;;;;;20.00;79.28;101380.16;5013134;28;20025;-74
2022/07/21 07:51:17;;;;;;;38.72;11.85;;;;;;;20.14;79.37;101378.28;5029927;28;20033;-75
2022/07/21 07:53:42;;;;;;;35.28;12.75;;;;;;;20.08;79.15;101387.38;5029803;28;20017;-75
2022/07/21 07:56:08;;;;;;;37.85;14.20;;;;;;;20.09;79.79;101388.25;5030790;28;20021;-75
2022/07/21 07:58:34;;;;;;;40.53;13.75;;;;;;;20.28;78.59;101396.53;5012997;28;20057;-75
2022/07/21 08:00:59;;;;;;;42.30;14.75;;;;;;;19.96;80.11;101422.88;5028979;28;20131;-74
2022/07/21 08:03:25;;;;;;;42.67;14.30;;;;;;;20.31;79.90;101425.50;5030831;28;20099;-74
2022/07/21 08:05:55;;;;;;;42.30;14.75;;;;;;;20.28;78.28;101421.28;5013155;28;20559;-75
2022/07/21 08:08:21;;;;;;;37.30;14.40;;;;;;;20.57;77.62;101419.22;5013001;28;20072;-75
2022/07/21 08:10:47;;;;;;;36.17;14.82;;;;;;;20.36;78.45;101435.88;5012608;28;20037;-75
2022/07/21 08:13:17;;;;;;;47.30;16.23;;;;;;;20.32;79.39;101425.28;5029128;28;20017;-74
2022/07/21 08:15:43;;;;;;;33.65;14.80;;;;;;;20.61;78.58;101420.50;5012580;28;20109;-75
2022/07/21 08:18:09;;;;;;;48.80;17.08;;;;;;;20.50;78.86;101429.38;5029983;28;20021;-74
2022/07/21 08:20:35;;;;;;;41.70;17.73;;;;;;;20.56;79.35;101436.78;5012129;28;20028;-75
2022/07/21 08:23:01;;;;;;;40.78;18.95;;;;;;;20.55;78.71;101426.84;5012545;28;20029;-75
2022/07/21 08:25:26;;;;;;;43.33;19.20;;;;;;;20.81;78.00;101421.34;5030078;28;20024;-75
2022/07/21 08:27:52;;;;;;;37.35;19.15;;;;;;;21.04;77.43;101422.78;5012201;28;20028;-75
2022/07/21 08:30:17;;;;;;;45.35;20.27;;;;;;;21.01;77.09;101423.22;5030183;28;20029;-75
2022/07/21 08:32:43;;;;;;;47.83;21.48;;;;;;;20.97;77.26;101419.19;5012254;28;20029;-73
2022/07/21 08:35:09;;;;;;;42.88;19.00;;;;;;;21.47;75.03;101414.03;5029479;28;20018;-74
2022/07/21 08:37:38;;;;;;;41.15;17.33;;;;;;;21.82;74.02;101411.78;5012898;28;20033;-74
2022/07/21 08:40:06;;;;;;;40.72;19.95;;;;;;;21.64;74.42;101426.25;5030312;28;20118;-74
2022/07/21 08:42:32;;;;;;;40.75;19.10;;;;;;;21.68;75.42;101430.28;5012266;28;20032;-74
2022/07/21 08:44:57;;;;;;;44.70;20.67;;;;;;;21.62;74.05;101429.25;5012394;28;20021;-75
2022/07/21 08:47:24;;;;;;;32.40;19.42;;;;;;;21.89;74.26;101429.97;5028507;28;20052;-75
2022/07/21 08:49:50;;;;;;;41.60;19.88;;;;;;;21.83;76.02;101430.84;5012107;28;20492;-75
2022/07/21 08:52:15;;;;;;;39.95;19.85;;;;;;;22.11;72.70;101429.69;5012137;28;20052;-75
2022/07/21 08:54:41;;;;;;;42.45;21.80;;;;;;;21.88;73.35;101432.94;5029919;28;20025;-75
2022/07/21 08:57:06;;;;;;;45.45;24.00;;;;;;;21.52;75.74;101422.50;5021216;28;20044;-73
2022/07/21 08:59:31;;;;;;;55.10;24.20;;;;;;;21.39;76.33;101435.25;5002629;28;20026;-74
2022/07/21 09:01:57;;;;;;;39.88;21.83;;;;;;;21.53;76.10;101441.56;5023303;28;20499;-75
2022/07/21 09:04:28;;;;;;;43.50;24.70;;;;;;;21.40;76.32;101447.97;5015121;28;20033;-74
2022/07/21 09:06:58;;;;;;;36.08;23.20;;;;;;;21.39;76.65;101451.78;5021279;28;20026;-74
2022/07/21 09:09:26;;;;;;;43.60;25.00;;;;;;;21.30;76.38;101458.56;5017209;28;20480;-74
2022/07/21 09:11:52;;;;;;;43.30;22.63;;;;;;;21.70;75.54;101446.59;5005823;28;20030;-73
2022/07/21 09:14:21;;;;;;;44.13;24.90;;;;;;;21.70;74.17;101447.44;5017726;28;20519;-75
2022/07/21 09:16:55;;;;;;;53.58;26.92;;;;;;;21.85;73.70;101439.75;5017082;28;20075;-75
2022/07/21 09:19:25;;;;;;;45.28;24.15;;;;;;;21.88;74.48;101444.81;5006483;28;20091;-75
2022/07/21 09:21:53;;;;;;;49.97;25.58;;;;;;;22.33;72.14;101438.47;5020378;28;20042;-74
2022/07/21 09:24:26;;;;;;;39.72;22.80;;;;;;;22.36;72.71;101447.13;5022363;28;20029;-73
2022/07/21 09:27:05;;;;;;;52.75;25.40;;;;;;;22.41;72.24;101461.09;5005209;28;20025;-74
2022/07/21 09:29:45;;;;;;;46.17;23.83;;;;;;;22.51;71.58;101444.06;4991287;28;20037;-75
2022/07/21 09:32:25;;;;;;;40.10;23.90;;;;;;;22.17;72.94;101453.63;5006028;28;20029;-73
2022/07/21 09:34:59;;;;;;;46.00;24.17;;;;;;;22.22;72.45;101451.03;5004913;28;20045;-73
2022/07/21 09:37:25;;;;;;;45.97;24.65;;;;;;;22.22;71.73;101462.06;5002638;28;20118;-72
2022/07/21 09:39:53;;;;;;;35.85;23.17;;;;;;;22.02;73.38;101458.53;5020768;28;20025;-72
2022/07/21 09:42:20;;;;;;;41.38;22.33;;;;;;;22.11;72.43;101457.28;5008800;28;20025;-72
2022/07/21 09:44:49;;;;;;;40.95;22.88;;;;;;;21.97;73.12;101463.88;5015780;28;20038;-73
2022/07/21 09:47:17;;;;;;;43.28;23.48;;;;;;;21.90;72.75;101447.34;5022174;28;20112;-71
2022/07/21 09:49:43;;;;;;;36.95;22.15;;;;;;;21.78;71.86;101455.50;5023624;28;20017;-72
2022/07/21 09:52:33;;;;;;;34.55;21.30;;;;;;;21.92;71.70;101435.06;5004495;28;20033;-73
2022/07/21 09:55:12;;;;;;;38.38;21.48;;;;;;;22.13;71.48;101430.31;5027389;28;20032;-74
2022/07/21 09:57:39;;;;;;;42.28;22.25;;;;;;;22.13;71.90;101435.84;5002784;28;20109;-73
2022/07/21 10:00:07;;;;;;;34.35;20.35;;;;;;;22.15;71.89;101444.72;5022552;28;20028;-74
2022/07/21 10:02:34;;;;;;;32.42;19.17;;;;;;;22.62;70.22;101445.25;5009370;28;20112;-73
2022/07/21 10:05:07;;;;;;;35.25;19.23;;;;;;;22.60;69.69;101447.41;5009615;28;20040;-73
2022/07/21 10:07:38;;;;;;;34.65;18.58;;;;;;;22.80;69.39;101448.09;5007943;28;20033;-73
2022/07/21 10:10:05;;;;;;;31.43;16.40;;;;;;;23.35;67.39;101445.47;5020403;28;20087;-73
2022/07/21 10:12:30;;;;;;;30.63;15.65;;;;;;;23.43;66.36;101456.22;5009344;28;20037;-72
2022/07/21 10:14:56;;;;;;;29.63;16.67;;;;;;;23.89;64.27;101452.09;4999160;28;20028;-73
2022/07/21 10:17:23;;;;;;;28.83;16.40;;;;;;;24.22;63.27;101456.34;4995610;28;20581;-73
2022/07/21 10:19:49;;;;;;;32.83;15.07;;;;;;;24.37;63.54;101459.56;5024163;28;20113;-72
2022/07/21 10:22:30;;;;;;;24.63;13.93;;;;;;;24.46;61.95;101447.09;5019700;28;20108;-74
2022/07/21 10:24:57;;;;;;;27.77;15.65;;;;;;;24.02;61.98;101456.63;5005944;28;20025;-73
2022/07/21 10:27:22;;;;;;;24.70;15.25;;;;;;;24.36;61.81;101452.34;5018603;28;20037;-72
2022/07/21 10:29:48;;;;;;;24.30;14.63;;;;;;;24.09;62.97;101447.16;5020860;28;20059;-73
2022/07/21 10:32:21;;;;;;;25.55;13.80;;;;;;;23.56;64.88;101469.91;5008084;28;20037;-74
2022/07/21 10:34:48;;;;;;;25.73;14.68;;;;;;;23.78;64.13;101458.41;5006575;28;20033;-74
2022/07/21 10:37:51;;;;;;;22.08;14.43;;;;;;;23.62;65.07;101467.34;5000879;28;20026;-73
2022/07/21 10:40:19;;;;;;;28.95;14.93;;;;;;;24.16;63.11;101451.75;5007064;28;20128;-73
2022/07/21 10:42:45;;;;;;;27.55;12.88;;;;;;;24.58;61.10;101453.50;5020446;28;20029;-73
2022/07/21 10:45:30;;;;;;;19.35;12.60;;;;;;;24.65;60.51;101467.22;5006787;28;20052;-73
2022/07/21 10:47:56;;;;;;;31.83;15.10;;;;;;;23.85;62.83;101469.38;5002492;28;20017;-74
2022/07/21 10:50:37;;;;;;;23.88;14.27;;;;;;;23.68;63.30;101471.94;5018522;28;20036;-74
2022/07/21 10:53:05;;;;;;;23.27;15.33;;;;;;;23.69;63.24;101473.63;4998010;28;20060;-74
2022/07/21 10:55:35;;;;;;;25.88;15.52;;;;;;;23.88;62.42;101455.09;5016877;28;20762;-73
2022/07/21 10:58:24;;;;;;;21.90;11.95;;;;;;;24.90;59.65;101458.69;5015402;28;20152;-73
2022/07/21 11:01:03;;;;;;;20.13;13.30;;;;;;;24.32;58.95;101467.69;5005074;28;20116;-74
2022/07/21 11:03:35;;;;;;;21.60;13.20;;;;;;;24.51;60.26;101454.66;5023991;28;20104;-74
2022/07/21 11:06:09;;;;;;;21.50;13.60;;;;;;;24.37;59.64;101454.00;5000657;28;20029;-73
2022/07/21 11:08:44;;;;;;;19.35;11.50;;;;;;;24.87;58.20;101454.50;5019617;28;20436;-74
2022/07/21 11:11:14;;;;;;;21.13;12.50;;;;;;;25.57;56.00;101458.38;5010025;28;20029;-74
2022/07/21 11:14:05;;;;;;;23.15;12.55;;;;;;;25.28;55.72;101463.81;5022415;28;20067;-74
2022/07/21 11:16:56;;;;;;;19.08;11.15;;;;;;;24.97;56.79;101462.19;5015494;28;20021;-75